Milwaukee, Wisconsin
Current Conditions -  °F | °C
As of 3:52 AM on Monday 26 Jan 2015 (Local Time) from KMKE Reporting Station
Broken Clouds Broken Clouds  
Wind Chill: 17°   Ceiling: 2500
Heat Index: 17°   Visibility: 10mi
Dew Point: 11°   Wind: 3mph
Humidity: 77%   Direction: 290°WNW
Pressure: 29.97"   Gusts: NA
Location:  43.04°N, 87.91°W
Report Text: KMKE 260952Z 29003KT 10SM BKN025 BKN250 M08/M12 A2997 RMK AO2 SLP162 T10831117
Loading
Personal Weather Stations






























Interactive Weather Map New forecast layout! Learn more

10-Day Weather Forecast

Advertisements
Track Severe Weather on mobile